Time;durP1;ratioP1;P1;durP2;ratioP2;P2;SDS_P1;SDS_P2;PMS_P1;PMS_P2;Temp;Humidity;BMP_temperature;BMP_pressure;BME280_temperature;BME280_humidity;BME280_pressure;Samples;Min_cycle;Max_cycle;Signal;HPM_P1;HPM_P2
2021/12/28 00:02:00;;;;;;;51.00;11.05;;;;;;;-149.78;100.00;50612.25;5115725;28;20401;-67
2021/12/28 00:04:26;;;;;;;44.50;10.13;;;;;;;-149.78;100.00;50663.13;5115638;28;20043;-67
2021/12/28 00:06:52;;;;;;;53.05;12.55;;;;;;;-149.78;100.00;50657.25;5115824;28;20057;-67
2021/12/28 00:09:17;;;;;;;57.50;11.88;;;;;;;-149.78;100.00;50676.81;5115492;28;20044;-67
2021/12/28 00:11:44;;;;;;;45.53;11.13;;;;;;;-149.78;100.00;50639.66;5115830;28;20092;-67
2021/12/28 00:14:10;;;;;;;66.75;11.48;;;;;;;-149.78;100.00;50657.25;5114275;28;20039;-67
2021/12/28 00:19:22;;;;;;;51.28;10.90;;;;;;;-149.78;100.00;50620.09;5053947;28;20039;-67
2021/12/28 00:21:48;;;;;;;194.57;14.80;;;;;;;-149.78;100.00;50624.00;5097377;28;20045;-67
2021/12/28 00:24:14;;;;;;;59.53;9.18;;;;;;;-149.78;100.00;50622.03;5115368;28;20039;-67
2021/12/28 00:26:40;;;;;;;71.20;10.15;;;;;;;-149.78;100.00;50612.25;5115481;28;20040;-67
2021/12/28 00:29:06;;;;;;;101.00;14.32;;;;;;;-149.78;100.00;50618.13;5115235;28;20470;-68
2021/12/28 00:31:32;;;;;;;94.90;10.50;;;;;;;-149.78;100.00;50647.47;5115564;28;20035;-67
2021/12/28 00:33:58;;;;;;;50.38;9.15;;;;;;;-149.78;100.00;50674.84;5115462;28;20118;-67
2021/12/28 00:36:25;;;;;;;54.97;9.27;;;;;;;-149.78;100.00;50659.19;5114496;28;20035;-67
2021/12/28 00:38:50;;;;;;;39.33;8.05;;;;;;;-149.78;100.00;50635.72;5115737;28;20470;-67
2021/12/28 00:41:16;;;;;;;40.53;8.82;;;;;;;-149.78;100.00;50631.81;5116084;28;20036;-67
2021/12/28 00:43:42;;;;;;;75.10;9.60;;;;;;;-149.78;100.00;50655.28;5097798;28;20067;-67
2021/12/28 00:46:09;;;;;;;60.40;10.20;;;;;;;-149.78;100.00;50655.28;5115854;28;20046;-67
2021/12/28 00:48:36;;;;;;;61.05;9.85;;;;;;;-149.78;100.00;50627.91;5098116;28;20041;-67
2021/12/28 00:51:03;;;;;;;43.92;10.40;;;;;;;-149.78;100.00;50616.19;5115795;28;20042;-67
2021/12/28 00:53:29;;;;;;;66.15;10.00;;;;;;;-149.78;100.00;50627.91;5096460;28;20214;-67
2021/12/28 00:55:54;;;;;;;54.22;9.45;;;;;;;-149.78;100.00;50633.78;5115800;28;20035;-67
2021/12/28 00:58:21;;;;;;;26.77;8.60;;;;;;;-149.78;100.00;50682.66;5115860;28;20050;-67
2021/12/28 01:00:47;;;;;;;38.95;9.93;;;;;;;-149.78;100.00;50655.28;5115836;28;20043;-67
2021/12/28 01:03:14;;;;;;;32.80;9.40;;;;;;;-149.78;100.00;50612.25;5115593;28;20031;-67
2021/12/28 01:05:42;;;;;;;33.00;9.07;;;;;;;-149.78;100.00;50682.66;5115610;28;20087;-67
2021/12/28 01:08:08;;;;;;;33.17;9.10;;;;;;;-149.78;100.00;50667.03;5115126;28;20051;-67
2021/12/28 01:10:47;;;;;;;26.75;8.63;;;;;;;-149.78;100.00;50682.66;5115634;28;20032;-67
2021/12/28 01:13:13;;;;;;;32.83;9.27;;;;;;;-149.78;100.00;50674.84;5115496;28;20042;-67
2021/12/28 01:15:39;;;;;;;25.45;8.70;;;;;;;-149.78;100.00;50659.19;5115473;28;20070;-67
2021/12/28 01:18:05;;;;;;;32.20;9.52;;;;;;;-149.78;100.00;50624.00;5115306;28;20032;-67
2021/12/28 01:20:31;;;;;;;33.80;9.85;;;;;;;-149.78;100.00;50651.38;5115478;28;20028;-67
2021/12/28 01:22:57;;;;;;;38.65;11.73;;;;;;;-149.78;100.00;50670.94;5114925;28;20112;-67
2021/12/28 01:25:23;;;;;;;34.97;10.55;;;;;;;-149.78;100.00;50647.47;5115266;28;20035;-67
2021/12/28 01:27:49;;;;;;;47.78;11.35;;;;;;;-149.78;100.00;50649.44;5115242;28;20122;-67
2021/12/28 01:30:17;;;;;;;45.97;11.57;;;;;;;-149.78;100.00;50647.47;5115328;28;20415;-67
2021/12/28 01:32:44;;;;;;;70.32;11.63;;;;;;;-149.78;100.00;50686.59;5110270;28;20118;-67
2021/12/28 01:35:13;;;;;;;44.25;12.13;;;;;;;-149.78;100.00;50633.78;5114467;28;20474;-67
2021/12/28 01:37:39;;;;;;;45.17;11.18;;;;;;;-149.78;100.00;50637.69;5114648;28;20040;-67
2021/12/28 01:40:08;;;;;;;38.78;10.93;;;;;;;-149.78;100.00;50624.00;5096932;28;20036;-68
2021/12/28 01:42:57;;;;;;;37.63;11.15;;;;;;;-149.78;100.00;50647.47;5114963;28;20144;-67
2021/12/28 01:45:34;;;;;;;36.85;10.23;;;;;;;-149.78;100.00;50624.00;5114969;28;20036;-67
2021/12/28 01:48:00;;;;;;;30.63;10.60;;;;;;;-149.78;100.00;50659.19;5114866;28;20104;-67
2021/12/28 01:50:26;;;;;;;31.08;9.73;;;;;;;-149.78;100.00;50682.66;5114907;28;20059;-67
2021/12/28 01:52:55;;;;;;;38.25;11.60;;;;;;;-149.78;100.00;50631.81;5114402;28;20042;-67
2021/12/28 01:55:22;;;;;;;41.17;11.02;;;;;;;-149.78;100.00;50614.22;5115038;28;20360;-67
2021/12/28 01:57:48;;;;;;;34.13;10.82;;;;;;;-149.78;100.00;50678.75;5114729;28;20399;-67
2021/12/28 02:00:14;;;;;;;49.97;15.73;;;;;;;-149.78;100.00;50663.13;5114120;28;20035;-67
2021/12/28 02:02:40;;;;;;;47.35;15.02;;;;;;;-149.78;100.00;50624.00;5114213;28;20038;-67
2021/12/28 02:05:06;;;;;;;45.75;14.50;;;;;;;-149.78;100.00;50627.91;5114367;28;20040;-67
2021/12/28 02:07:32;;;;;;;37.17;12.57;;;;;;;-149.78;100.00;50643.56;5114261;28;20048;-67
2021/12/28 02:09:57;;;;;;;37.25;11.05;;;;;;;-149.78;100.00;50667.03;5114306;28;20058;-67
2021/12/28 02:12:23;;;;;;;35.75;11.40;;;;;;;-149.78;100.00;50627.91;5114343;28;20048;-67
2021/12/28 02:14:48;;;;;;;31.40;11.18;;;;;;;-149.78;100.00;50627.91;5114292;28;20498;-67
2021/12/28 02:17:14;;;;;;;38.63;11.52;;;;;;;-149.78;100.00;50651.38;5114335;28;20054;-68
2021/12/28 02:19:41;;;;;;;40.75;10.40;;;;;;;-149.78;100.00;50659.19;5113333;28;20463;-67
2021/12/28 02:22:07;;;;;;;37.88;11.45;;;;;;;-149.78;100.00;50670.94;5114128;28;20550;-64
2021/12/28 02:24:33;;;;;;;37.22;11.15;;;;;;;-149.78;100.00;50616.19;5114153;28;20039;-65
2021/12/28 02:26:59;;;;;;;34.97;10.48;;;;;;;-149.78;100.00;50651.38;5114389;28;20375;-64
2021/12/28 02:29:25;;;;;;;27.05;10.90;;;;;;;-149.78;100.00;50643.56;5114197;28;20043;-64
2021/12/28 02:31:55;;;;;;;31.65;11.10;;;;;;;-149.78;100.00;50651.38;5114020;28;20039;-64
2021/12/28 02:34:25;;;;;;;30.67;10.02;;;;;;;-149.78;100.00;50690.50;5114070;28;20432;-64
2021/12/28 02:36:51;;;;;;;35.08;10.48;;;;;;;-149.78;100.00;50588.78;5114072;28;20451;-64
2021/12/28 02:39:18;;;;;;;31.85;9.98;;;;;;;-149.78;100.00;50625.94;5111009;28;20092;-64
2021/12/28 02:41:43;;;;;;;46.45;11.48;;;;;;;-149.78;100.00;50643.56;5112571;28;20163;-64
2021/12/28 02:44:09;;;;;;;30.27;9.48;;;;;;;-149.78;100.00;50643.56;5095368;28;20039;-67
2021/12/28 02:46:35;;;;;;;32.63;10.48;;;;;;;-149.78;100.00;50647.47;5113751;28;20027;-67
2021/12/28 02:49:01;;;;;;;27.35;9.48;;;;;;;-149.78;100.00;50635.72;5112792;28;20073;-67
2021/12/28 02:51:27;;;;;;;31.60;9.40;;;;;;;-149.78;100.00;50667.03;5113374;28;20134;-67
2021/12/28 02:53:52;;;;;;;36.55;10.65;;;;;;;-149.78;100.00;50631.81;5113669;28;20197;-67
2021/12/28 02:56:21;;;;;;;36.15;10.15;;;;;;;-149.78;100.00;50651.38;5113560;28;20042;-67
2021/12/28 02:58:53;;;;;;;28.02;10.05;;;;;;;-149.78;100.00;50659.19;5113413;28;20043;-67
2021/12/28 03:01:21;;;;;;;41.17;10.80;;;;;;;-149.78;100.00;50635.72;5113767;28;20039;-67
2021/12/28 03:03:51;;;;;;;36.90;9.85;;;;;;;-149.78;100.00;50686.59;5113648;28;20115;-67
2021/12/28 03:06:21;;;;;;;36.97;10.18;;;;;;;-149.78;100.00;50655.28;5113864;28;20040;-67
2021/12/28 03:08:53;;;;;;;59.25;11.38;;;;;;;-149.78;100.00;50618.13;5112278;28;20042;-67
2021/12/28 03:11:20;;;;;;;47.38;11.23;;;;;;;-149.78;100.00;50616.19;5112849;28;20223;-67
2021/12/28 03:13:58;;;;;;;52.38;10.60;;;;;;;-149.78;100.00;50667.03;5113431;28;20504;-67
2021/12/28 03:16:25;;;;;;;53.15;10.93;;;;;;;-149.78;100.00;50643.56;5114652;28;20027;-67
2021/12/28 03:18:51;;;;;;;52.58;10.13;;;;;;;-149.78;100.00;50647.47;5117711;28;20032;-67
2021/12/28 03:21:19;;;;;;;40.20;10.80;;;;;;;-149.78;100.00;50631.81;5117659;28;20036;-67
2021/12/28 03:23:46;;;;;;;28.52;9.55;;;;;;;-149.78;100.00;50639.66;5117681;28;20046;-67
2021/12/28 03:26:13;;;;;;;27.90;10.35;;;;;;;-149.78;100.00;50655.28;5099431;28;20122;-67
2021/12/28 03:28:42;;;;;;;78.25;10.90;;;;;;;-149.78;100.00;50633.78;5117418;28;20023;-67
2021/12/28 03:31:11;;;;;;;59.90;11.55;;;;;;;-149.78;100.00;50627.91;5117715;28;20114;-67
2021/12/28 03:33:40;;;;;;;33.50;10.48;;;;;;;-149.78;100.00;50670.94;5117550;28;20038;-67
2021/12/28 03:36:07;;;;;;;31.77;9.95;;;;;;;-149.78;100.00;50653.34;5117334;28;20031;-67
2021/12/28 03:38:38;;;;;;;32.88;10.20;;;;;;;-149.78;100.00;50647.47;5117484;28;20115;-67
2021/12/28 03:41:08;;;;;;;28.30;10.13;;;;;;;-149.78;100.00;50651.38;5099598;28;20027;-67
2021/12/28 03:43:39;;;;;;;30.55;9.88;;;;;;;-149.78;100.00;50651.38;5099023;28;20428;-64
2021/12/28 03:46:06;;;;;;;34.20;10.90;;;;;;;-149.78;100.00;50629.88;5117325;28;20035;-64
2021/12/28 03:48:32;;;;;;;33.70;10.38;;;;;;;-149.78;100.00;50647.47;5117094;28;20024;-65
2021/12/28 03:50:58;;;;;;;50.35;11.05;;;;;;;-149.78;100.00;50629.88;5117213;28;20023;-65
2021/12/28 03:53:23;;;;;;;95.78;12.13;;;;;;;-149.78;100.00;50639.66;5117231;28;20031;-65
2021/12/28 03:55:49;;;;;;;37.25;11.15;;;;;;;-149.78;100.00;50665.06;5116825;28;20070;-65
2021/12/28 03:58:15;;;;;;;32.70;11.63;;;;;;;-149.78;100.00;50633.78;5117052;28;20032;-65
2021/12/28 04:00:44;;;;;;;48.10;11.55;;;;;;;-149.78;100.00;50633.78;5117119;28;20513;-65
2021/12/28 04:03:12;;;;;;;41.85;11.02;;;;;;;-149.78;100.00;50670.94;5115694;28;20039;-65
2021/12/28 04:05:38;;;;;;;43.97;11.65;;;;;;;-149.78;100.00;50627.91;5116122;28;20115;-65
2021/12/28 04:08:04;;;;;;;42.22;11.18;;;;;;;-149.78;100.00;50635.72;5116317;28;20122;-65
2021/12/28 04:10:37;;;;;;;33.63;10.75;;;;;;;-149.78;100.00;50618.13;5116319;28;20046;-64
2021/12/28 04:13:04;;;;;;;36.00;10.93;;;;;;;-149.78;100.00;50627.91;5116241;28;20020;-65
2021/12/28 04:15:30;;;;;;;56.70;11.20;;;;;;;-149.78;100.00;50661.16;5116388;28;20088;-65
2021/12/28 04:17:56;;;;;;;50.85;12.98;;;;;;;-149.78;100.00;50647.47;5116136;28;20047;-65
2021/12/28 04:20:23;;;;;;;48.40;10.63;;;;;;;-149.78;100.00;50635.72;5116106;28;20027;-65
2021/12/28 04:22:49;;;;;;;40.85;11.23;;;;;;;-149.78;100.00;50651.38;5116249;28;20031;-65
2021/12/28 04:25:17;;;;;;;78.80;11.43;;;;;;;-149.78;100.00;50643.56;5116227;28;20107;-64
2021/12/28 04:27:43;;;;;;;58.85;11.57;;;;;;;-149.78;100.00;50663.13;5097825;28;20032;-65
2021/12/28 04:30:11;;;;;;;57.17;10.68;;;;;;;-149.78;100.00;50659.19;5116479;28;20382;-65
2021/12/28 04:32:38;;;;;;;54.92;11.65;;;;;;;-149.78;100.00;50665.06;5098188;28;20035;-64
2021/12/28 04:35:04;;;;;;;98.60;12.43;;;;;;;-149.78;100.00;50651.38;5116538;28;20039;-65
2021/12/28 04:37:31;;;;;;;106.78;11.85;;;;;;;-149.78;100.00;50641.59;5116178;28;20417;-65
2021/12/28 04:39:56;;;;;;;65.90;11.70;;;;;;;-149.78;100.00;50643.56;5116261;28;20466;-65
2021/12/28 04:42:24;;;;;;;72.40;10.13;;;;;;;-149.78;100.00;50647.47;5116126;28;20035;-65
2021/12/28 04:44:50;;;;;;;43.33;10.75;;;;;;;-149.78;100.00;50643.56;5116353;28;20463;-65
2021/12/28 04:47:16;;;;;;;45.40;9.98;;;;;;;-149.78;100.00;50639.66;5115917;28;20032;-65
2021/12/28 04:49:43;;;;;;;64.95;11.43;;;;;;;-149.78;100.00;50674.84;5115907;28;20364;-65
2021/12/28 04:52:09;;;;;;;65.22;9.50;;;;;;;-149.78;100.00;50651.38;5115815;28;20548;-65
2021/12/28 04:54:36;;;;;;;55.78;10.32;;;;;;;-149.78;100.00;50659.19;5116607;28;20093;-65
2021/12/28 04:57:04;;;;;;;61.55;9.68;;;;;;;-149.78;100.00;50657.25;5097509;28;20035;-65
2021/12/28 04:59:30;;;;;;;42.53;9.52;;;;;;;-149.78;100.00;50643.56;5115835;28;20046;-65
2021/12/28 05:01:55;;;;;;;46.67;10.02;;;;;;;-149.78;100.00;50631.81;5115755;28;20032;-65
2021/12/28 05:04:21;;;;;;;56.58;9.82;;;;;;;-149.78;100.00;50659.19;5115540;28;20059;-65
2021/12/28 05:06:47;;;;;;;44.95;10.13;;;;;;;-149.78;100.00;50639.66;5115640;28;20542;-65
2021/12/28 05:09:15;;;;;;;47.50;10.18;;;;;;;-149.78;100.00;50665.06;5097276;28;20040;-65
2021/12/28 05:11:42;;;;;;;68.13;10.32;;;;;;;-149.78;100.00;50627.91;5115554;28;20858;-64
2021/12/28 05:14:09;;;;;;;42.38;10.23;;;;;;;-149.78;100.00;50655.28;5115459;28;20076;-65
2021/12/28 05:16:35;;;;;;;49.20;9.43;;;;;;;-149.78;100.00;50627.91;5115338;28;20053;-65
2021/12/28 05:19:04;;;;;;;48.95;10.77;;;;;;;-149.78;100.00;50651.38;5096924;28;20048;-65
2021/12/28 05:21:31;;;;;;;56.47;9.13;;;;;;;-149.78;100.00;50682.66;5115537;28;20035;-65
2021/12/28 05:23:57;;;;;;;33.63;8.75;;;;;;;-149.78;100.00;50663.13;5115421;28;20084;-65
2021/12/28 05:26:23;;;;;;;71.53;9.73;;;;;;;-149.78;100.00;50614.22;5115222;28;20040;-65
2021/12/28 05:28:49;;;;;;;58.30;9.55;;;;;;;-149.78;100.00;50635.72;5115442;28;20044;-65
2021/12/28 05:31:15;;;;;;;58.45;10.75;;;;;;;-149.78;100.00;50663.13;5115116;28;20406;-65
2021/12/28 05:33:41;;;;;;;32.58;9.32;;;;;;;-149.78;100.00;50631.81;5113774;28;20023;-65
2021/12/28 05:36:07;;;;;;;46.78;8.35;;;;;;;-149.78;100.00;50635.72;5114793;28;20043;-65
2021/12/28 05:38:34;;;;;;;41.45;8.75;;;;;;;-149.78;100.00;50633.78;5112959;28;20509;-65
2021/12/28 05:41:00;;;;;;;23.42;8.55;;;;;;;-149.78;100.00;50686.59;5114454;28;20095;-65
2021/12/28 05:43:25;;;;;;;38.22;8.68;;;;;;;-149.78;100.00;50657.25;5114742;28;20428;-65
2021/12/28 05:45:51;;;;;;;42.10;9.65;;;;;;;-149.78;100.00;50674.84;5114542;28;20526;-65
2021/12/28 05:48:16;;;;;;;35.85;9.07;;;;;;;-149.78;100.00;50663.13;5114470;28;20109;-65
2021/12/28 05:50:42;;;;;;;88.60;11.30;;;;;;;-149.78;100.00;50620.09;5114856;28;20027;-65
2021/12/28 05:53:07;;;;;;;58.15;9.30;;;;;;;-149.78;100.00;50649.44;5114554;28;20363;-65
2021/12/28 05:55:33;;;;;;;89.40;10.25;;;;;;;-149.78;100.00;50663.13;5096067;28;20111;-65
2021/12/28 05:57:59;;;;;;;100.25;13.10;;;;;;;-149.78;100.00;50631.81;5114349;28;20043;-65
2021/12/28 06:00:28;;;;;;;65.65;10.60;;;;;;;-149.78;100.00;50639.66;5114247;28;20043;-64
2021/12/28 06:02:56;;;;;;;55.08;9.75;;;;;;;-149.78;100.00;50661.16;5114098;28;20032;-64
2021/12/28 06:05:23;;;;;;;51.67;9.20;;;;;;;-149.78;100.00;50668.97;5113913;28;20035;-65
2021/12/28 06:07:48;;;;;;;41.08;8.60;;;;;;;-149.78;100.00;50649.44;5113630;28;20047;-65
2021/12/28 06:10:14;;;;;;;43.53;8.55;;;;;;;-149.78;100.00;50663.13;5114490;28;20036;-65
2021/12/28 06:12:40;;;;;;;70.78;10.27;;;;;;;-149.78;100.00;50655.28;5114480;28;20110;-65
2021/12/28 06:15:07;;;;;;;69.22;9.55;;;;;;;-149.78;100.00;50667.03;5114363;28;20085;-65
2021/12/28 06:17:33;;;;;;;57.17;9.07;;;;;;;-149.78;100.00;50627.91;5114212;28;20047;-65
2021/12/28 06:19:59;;;;;;;55.92;8.52;;;;;;;-149.78;100.00;50663.13;5096153;28;20101;-65
2021/12/28 06:22:25;;;;;;;61.83;9.45;;;;;;;-149.78;100.00;50659.19;5114315;28;20039;-65
2021/12/28 06:24:51;;;;;;;50.83;8.80;;;;;;;-149.78;100.00;50655.28;5114411;28;20032;-65
2021/12/28 06:27:18;;;;;;;36.83;8.23;;;;;;;-149.78;100.00;50686.59;5114365;28;20032;-65
2021/12/28 06:29:44;;;;;;;37.88;8.25;;;;;;;-149.78;100.00;50651.38;5113380;28;20055;-65
2021/12/28 06:32:10;;;;;;;35.05;7.72;;;;;;;-149.78;100.00;50655.28;5113657;28;20571;-65
2021/12/28 06:34:38;;;;;;;34.72;7.43;;;;;;;-149.78;100.00;50655.28;5114059;28;20035;-64
2021/12/28 06:37:04;;;;;;;30.65;8.25;;;;;;;-149.78;100.00;50655.28;5114059;28;20034;-65
2021/12/28 06:39:30;;;;;;;38.10;7.97;;;;;;;-149.78;100.00;50639.66;5114133;28;20035;-64
2021/12/28 06:41:56;;;;;;;41.25;7.50;;;;;;;-149.78;100.00;50635.72;5114022;28;20031;-65
2021/12/28 06:44:21;;;;;;;36.78;7.63;;;;;;;-149.78;100.00;50641.59;5113406;28;20362;-64
2021/12/28 06:46:47;;;;;;;34.72;7.40;;;;;;;-149.78;100.00;50651.38;5113790;28;20388;-64
2021/12/28 06:49:17;;;;;;;31.38;6.95;;;;;;;-149.78;100.00;50678.75;5113946;28;20063;-65
2021/12/28 06:51:43;;;;;;;35.40;7.00;;;;;;;-149.78;100.00;50639.66;5112291;28;20112;-64
2021/12/28 06:54:09;;;;;;;24.88;6.60;;;;;;;-149.78;100.00;50655.28;5112969;28;20023;-64
2021/12/28 06:56:35;;;;;;;29.42;6.75;;;;;;;-149.78;100.00;50639.66;5112925;28;20458;-64
2021/12/28 06:59:02;;;;;;;58.83;8.38;;;;;;;-149.78;100.00;50625.94;5112689;28;20035;-65
2021/12/28 07:01:28;;;;;;;72.47;7.93;;;;;;;-149.78;100.00;50663.13;5112765;28;20040;-64
2021/12/28 07:03:53;;;;;;;22.98;5.72;;;;;;;-149.78;100.00;50667.03;5112402;28;20485;-65
2021/12/28 07:06:23;;;;;;;19.02;6.03;;;;;;;-149.78;100.00;50643.56;5110876;28;20038;-65
2021/12/28 07:08:49;;;;;;;33.17;6.68;;;;;;;-149.78;100.00;50631.81;5111621;28;20431;-63
2021/12/28 07:11:15;;;;;;;15.30;4.85;;;;;;;-149.78;100.00;50620.09;5113130;28;20062;-68
2021/12/28 07:13:41;;;;;;;23.65;4.90;;;;;;;-149.78;100.00;50631.81;5113661;28;20428;-66
2021/12/28 07:16:06;;;;;;;29.90;5.00;;;;;;;-149.78;100.00;50608.34;5113584;28;20038;-64
2021/12/28 07:18:32;;;;;;;13.63;4.93;;;;;;;-149.78;100.00;50667.03;5113477;28;20123;-64
2021/12/28 07:20:58;;;;;;;70.35;5.57;;;;;;;-149.78;100.00;50653.34;5094772;28;20100;-65
2021/12/28 07:23:24;;;;;;;31.23;5.30;;;;;;;-149.78;100.00;50667.03;5111317;28;20455;-65
2021/12/28 07:25:53;;;;;;;51.42;5.20;;;;;;;-149.78;100.00;50663.13;5111480;28;20061;-65
2021/12/28 07:28:19;;;;;;;28.88;4.60;;;;;;;-149.78;100.00;50651.38;5095017;28;20039;-65
2021/12/28 07:30:45;;;;;;;16.88;4.43;;;;;;;-149.78;100.00;50661.16;5095159;28;20462;-65
2021/12/28 07:33:10;;;;;;;10.50;4.10;;;;;;;-149.78;100.00;50647.47;5113220;28;20038;-64
2021/12/28 07:35:36;;;;;;;30.95;4.38;;;;;;;-149.78;100.00;50647.47;5113448;28;20083;-65
2021/12/28 07:38:02;;;;;;;61.05;4.78;;;;;;;-149.78;100.00;50670.94;5113432;28;20040;-65
2021/12/28 07:40:28;;;;;;;30.42;4.25;;;;;;;-149.78;100.00;50639.66;5112207;28;20067;-65
2021/12/28 07:42:54;;;;;;;9.82;3.80;;;;;;;-149.78;100.00;50635.72;5112842;28;20031;-65
2021/12/28 07:45:19;;;;;;;18.92;4.88;;;;;;;-149.78;100.00;50643.56;5113284;28;20126;-65
2021/12/28 07:47:45;;;;;;;8.60;3.65;;;;;;;-149.78;100.00;50649.44;5113285;28;20044;-64
2021/12/28 07:50:13;;;;;;;12.05;3.60;;;;;;;-149.78;100.00;50647.47;5111626;28;20047;-65
2021/12/28 07:52:39;;;;;;;19.13;4.40;;;;;;;-149.78;100.00;50647.47;5112884;28;20114;-65
2021/12/28 07:55:07;;;;;;;19.90;5.15;;;;;;;-149.78;100.00;50639.66;5113209;28;20043;-65
2021/12/28 07:57:34;;;;;;;41.85;4.72;;;;;;;-149.78;100.00;50674.84;5113111;28;20047;-65
2021/12/28 08:00:01;;;;;;;16.17;4.10;;;;;;;-149.78;100.00;50667.03;5112737;28;20031;-65
2021/12/28 08:02:28;;;;;;;15.75;4.10;;;;;;;-149.78;100.00;50627.91;5113802;28;20046;-65
2021/12/28 08:04:53;;;;;;;33.63;5.05;;;;;;;-149.78;100.00;50667.03;5116732;28;20046;-65
2021/12/28 08:07:19;;;;;;;56.28;5.72;;;;;;;-149.78;100.00;50639.66;5115550;28;20035;-65
2021/12/28 08:09:44;;;;;;;20.85;4.32;;;;;;;-149.78;100.00;50667.03;5116347;28;20352;-65
2021/12/28 08:12:10;;;;;;;15.18;4.38;;;;;;;-149.78;100.00;50670.94;5115195;28;20089;-65
2021/12/28 08:14:36;;;;;;;58.03;6.28;;;;;;;-149.78;100.00;50624.00;5115370;28;20074;-64
2021/12/28 08:17:01;;;;;;;30.17;4.57;;;;;;;-149.78;100.00;50655.28;5114776;28;20037;-65
2021/12/28 08:19:27;;;;;;;19.15;4.40;;;;;;;-149.78;100.00;50670.94;5116610;28;20194;-65
2021/12/28 08:21:52;;;;;;;8.65;4.40;;;;;;;-149.78;100.00;50659.19;5116362;28;20035;-64
2021/12/28 08:24:18;;;;;;;15.15;4.15;;;;;;;-149.78;100.00;50635.72;5116343;28;20059;-63
2021/12/28 08:26:44;;;;;;;8.60;3.80;;;;;;;-149.78;100.00;50625.94;5116181;28;20039;-64
2021/12/28 08:29:09;;;;;;;9.82;4.55;;;;;;;-149.78;100.00;50651.38;5116071;28;20039;-64
2021/12/28 08:31:35;;;;;;;10.32;4.90;;;;;;;-149.78;100.00;50637.69;5116154;28;20035;-64
2021/12/28 08:34:02;;;;;;;8.75;4.00;;;;;;;-149.78;100.00;50641.59;5115702;28;20050;-64
2021/12/28 08:36:28;;;;;;;8.57;4.13;;;;;;;-149.78;100.00;50670.94;5115838;28;20066;-64
2021/12/28 08:38:54;;;;;;;12.43;3.95;;;;;;;-149.78;100.00;50663.13;5115026;28;20455;-64
2021/12/28 08:41:20;;;;;;;11.63;4.30;;;;;;;-149.78;100.00;50657.25;5114597;28;20044;-64
2021/12/28 08:43:46;;;;;;;7.07;4.20;;;;;;;-149.78;100.00;50625.94;5114375;28;20424;-63
2021/12/28 08:46:13;;;;;;;10.43;4.38;;;;;;;-149.78;100.00;50627.91;5115786;28;20094;-63
2021/12/28 08:48:39;;;;;;;11.60;5.03;;;;;;;-149.78;100.00;50663.13;5115792;28;20034;-63
2021/12/28 08:51:05;;;;;;;9.50;4.85;;;;;;;-149.78;100.00;50657.25;5115739;28;20031;-64
2021/12/28 08:53:30;;;;;;;10.82;5.18;;;;;;;-149.78;100.00;50624.00;5115530;28;20038;-65
2021/12/28 08:55:57;;;;;;;10.38;4.65;;;;;;;-149.78;100.00;50655.28;5115807;28;20045;-67
2021/12/28 08:58:22;;;;;;;11.88;5.07;;;;;;;-149.78;100.00;50674.84;5115851;28;20053;-68
2021/12/28 09:00:48;;;;;;;8.55;4.88;;;;;;;-149.78;100.00;50631.81;5080798;28;20039;-68
2021/12/28 09:03:14;;;;;;;11.52;4.70;;;;;;;-149.78;100.00;50665.06;5115462;28;20032;-68
2021/12/28 09:05:39;;;;;;;9.55;4.40;;;;;;;-149.78;100.00;50661.16;5115713;28;20043;-68
2021/12/28 09:08:09;;;;;;;8.82;4.50;;;;;;;-149.78;100.00;50625.94;5093899;28;20056;-68
2021/12/28 09:10:35;;;;;;;8.40;4.10;;;;;;;-149.78;100.00;50663.13;5094991;28;20040;-68
2021/12/28 09:13:01;;;;;;;9.48;4.85;;;;;;;-149.78;100.00;50651.38;5092996;28;20032;-69
2021/12/28 09:15:28;;;;;;;9.88;4.82;;;;;;;-149.78;100.00;50624.00;5092201;28;20043;-69
2021/12/28 09:17:54;;;;;;;9.27;5.03;;;;;;;-149.78;100.00;50661.16;5093018;28;20491;-67
2021/12/28 09:20:23;;;;;;;9.75;4.93;;;;;;;-149.78;100.00;50665.06;5093059;28;20458;-67
2021/12/28 09:22:51;;;;;;;10.95;4.60;;;;;;;-149.78;100.00;50620.09;5092773;28;20035;-67
2021/12/28 09:25:18;;;;;;;10.35;4.97;;;;;;;-149.78;100.00;50678.75;5093535;28;20040;-66
2021/12/28 09:27:45;;;;;;;9.43;4.57;;;;;;;-149.78;100.00;50635.72;5093180;28;20032;-67
2021/12/28 09:30:12;;;;;;;8.82;4.65;;;;;;;-149.78;100.00;50668.97;5092466;28;20055;-68
2021/12/28 09:32:37;;;;;;;11.05;5.07;;;;;;;-149.78;100.00;50624.00;5092568;28;20036;-68
2021/12/28 09:35:03;;;;;;;7.57;3.65;;;;;;;-149.78;100.00;50639.66;5092167;28;20050;-68
2021/12/28 09:37:29;;;;;;;9.60;4.82;;;;;;;-149.78;100.00;50667.03;5088250;28;20433;-68
2021/12/28 09:39:57;;;;;;;10.18;4.40;;;;;;;-149.78;100.00;50643.56;5093557;28;20085;-68
2021/12/28 09:42:23;;;;;;;5.50;3.00;;;;;;;-149.78;100.00;50659.19;5093463;28;20058;-68
2021/12/28 09:44:49;;;;;;;6.30;3.78;;;;;;;-149.78;100.00;50651.38;5088698;28;20067;-67
2021/12/28 09:47:17;;;;;;;8.55;3.63;;;;;;;-149.78;100.00;50647.47;5092735;28;20626;-68
2021/12/28 09:49:43;;;;;;;6.95;3.53;;;;;;;-149.78;100.00;50647.47;5092831;28;20054;-65
2021/12/28 09:52:10;;;;;;;6.65;3.65;;;;;;;-149.78;100.00;50647.47;5092995;28;20247;-68
2021/12/28 09:54:36;;;;;;;6.20;3.30;;;;;;;-149.78;100.00;50649.44;5092473;28;20052;-68
2021/12/28 09:57:02;;;;;;;4.93;3.10;;;;;;;-149.78;100.00;50637.69;5093340;28;20063;-66
2021/12/28 09:59:29;;;;;;;6.32;3.05;;;;;;;-149.78;100.00;50674.84;5093205;28;20036;-69
2021/12/28 10:01:55;;;;;;;6.43;3.22;;;;;;;-149.78;100.00;50637.69;5092467;28;20115;-67
2021/12/28 10:04:21;;;;;;;5.53;3.25;;;;;;;-149.78;100.00;50655.28;5091311;28;20059;-68
2021/12/28 10:06:47;;;;;;;5.78;3.40;;;;;;;-149.78;100.00;50639.66;5092069;28;20491;-66
2021/12/28 10:09:15;;;;;;;4.78;2.92;;;;;;;-149.78;100.00;50635.72;5108362;28;20035;-67
2021/12/28 10:11:53;;;;;;;10.27;3.53;;;;;;;-149.78;100.00;50635.72;5107116;28;20053;-68
2021/12/28 10:14:18;;;;;;;4.10;2.38;;;;;;;-149.78;100.00;50635.72;5108893;28;20103;-70
2021/12/28 10:17:00;;;;;;;5.70;2.80;;;;;;;-149.78;100.00;50657.25;5109173;28;20439;-66
2021/12/28 10:19:44;;;;;;;2.90;2.23;;;;;;;-149.78;100.00;50647.47;5092570;28;20024;-66
2021/12/28 10:22:22;;;;;;;3.70;2.42;;;;;;;-149.78;100.00;50631.81;5110472;28;20681;-68
2021/12/28 10:24:50;;;;;;;3.13;2.15;;;;;;;-149.78;100.00;50627.91;5112326;28;20035;-68
2021/12/28 10:27:19;;;;;;;4.28;2.63;;;;;;;-149.78;100.00;50639.66;5107920;28;20043;-67
2021/12/28 10:29:45;;;;;;;4.72;3.00;;;;;;;-149.78;100.00;50620.09;5111419;28;20481;-68
2021/12/28 10:32:15;;;;;;;4.78;2.80;;;;;;;-149.78;100.00;50627.91;5094371;28;20432;-67
2021/12/28 10:34:50;;;;;;;4.53;2.90;;;;;;;-149.78;100.00;50635.72;5098911;28;20119;-67
2021/12/28 10:37:20;;;;;;;3.20;2.25;;;;;;;-149.78;100.00;50608.34;5110398;28;20042;-66
2021/12/28 10:39:49;;;;;;;2.92;1.98;;;;;;;-149.78;100.00;50608.34;5111997;28;20040;-66
2021/12/28 10:42:42;;;;;;;3.13;2.15;;;;;;;-149.78;100.00;50647.47;5109199;28;20064;-67
2021/12/28 10:45:11;;;;;;;3.33;2.22;;;;;;;-149.78;100.00;50651.38;5111205;28;20519;-66
2021/12/28 10:47:37;;;;;;;4.10;2.50;;;;;;;-149.78;100.00;50639.66;5111974;28;20027;-67
2021/12/28 10:50:22;;;;;;;3.92;2.40;;;;;;;-149.78;100.00;50631.81;5111338;28;20027;-67
2021/12/28 10:53:00;;;;;;;5.43;2.90;;;;;;;-149.78;100.00;50614.22;5111910;28;20028;-67
2021/12/28 10:55:27;;;;;;;7.13;4.03;;;;;;;-149.78;100.00;50627.91;5112044;28;20043;-65
2021/12/28 10:57:52;;;;;;;6.93;3.58;;;;;;;-149.78;100.00;50655.28;5109193;28;20506;-63
2021/12/28 11:00:51;;;;;;;9.73;3.90;;;;;;;-149.78;100.00;50676.81;5111494;28;20043;-63
2021/12/28 11:03:19;;;;;;;10.57;4.57;;;;;;;-149.78;100.00;50624.00;5060046;28;20043;-66